createdAt,value
2018-12-19T00:02:14.831Z,18.87
2018-12-19T00:04:42.381Z,20.00
2018-12-19T00:07:09.826Z,23.87
2018-12-19T00:09:37.374Z,26.33
2018-12-19T00:12:04.885Z,28.83
2018-12-19T00:14:32.344Z,31.40
2018-12-19T00:16:59.810Z,34.40
2018-12-19T00:19:27.430Z,38.67
2018-12-19T00:21:54.927Z,42.43
2018-12-19T00:24:22.400Z,45.10
2018-12-19T00:26:49.852Z,49.00
2018-12-19T00:29:17.296Z,52.23
2018-12-19T00:31:44.739Z,58.50
2018-12-19T00:34:12.196Z,61.60
2018-12-19T00:36:39.645Z,66.60
2018-12-19T00:39:09.691Z,71.27
2018-12-19T00:41:36.642Z,78.10
2018-12-19T00:44:04.111Z,82.80
2018-12-19T00:46:31.570Z,86.47
2018-12-19T00:48:59.203Z,90.70
2018-12-19T00:51:26.766Z,93.20
2018-12-19T00:53:54.211Z,97.50
2018-12-19T00:56:21.783Z,104.47
2018-12-19T00:58:49.353Z,109.27
2018-12-19T01:01:16.929Z,113.93
2018-12-19T01:03:44.489Z,118.13
2018-12-19T01:06:12.143Z,121.67
2018-12-19T01:08:39.594Z,124.93
2018-12-19T01:11:07.171Z,127.27
2018-12-19T01:13:34.638Z,130.17
2018-12-19T01:16:02.107Z,136.83
2018-12-19T01:18:29.556Z,136.93
2018-12-19T01:20:57.002Z,140.73
2018-12-19T01:23:24.477Z,144.17
2018-12-19T01:25:51.995Z,146.47
2018-12-19T01:28:19.547Z,151.40
2018-12-19T01:30:47.135Z,154.27
2018-12-19T01:33:14.578Z,158.17
2018-12-19T01:35:42.045Z,158.60
2018-12-19T01:38:09.494Z,164.30
2018-12-19T01:40:37.039Z,165.53
2018-12-19T01:43:04.602Z,169.70
2018-12-19T01:45:32.183Z,170.13
2018-12-19T01:47:59.683Z,171.20
2018-12-19T01:50:27.131Z,177.97
2018-12-19T01:52:54.631Z,178.87
2018-12-19T01:55:22.078Z,181.90
2018-12-19T01:57:49.646Z,183.60
2018-12-19T02:00:17.120Z,190.23
2018-12-19T02:02:44.567Z,188.43
2018-12-19T02:05:12.397Z,192.50
2018-12-19T02:07:39.902Z,199.50
2018-12-19T02:10:07.357Z,196.40
2018-12-19T02:12:34.802Z,202.50
2018-12-19T02:15:02.271Z,202.47
2018-12-19T02:17:29.820Z,204.87
2018-12-19T02:19:57.382Z,208.73
2018-12-19T02:22:25.229Z,204.73
2018-12-19T02:24:52.715Z,213.13
2018-12-19T02:27:20.165Z,218.20
2018-12-19T02:29:47.619Z,215.77
2018-12-19T02:32:15.084Z,215.03
2018-12-19T02:34:42.644Z,217.23
2018-12-19T02:37:10.194Z,215.57
2018-12-19T02:39:37.792Z,219.30
2018-12-19T02:42:05.240Z,221.53
2018-12-19T02:44:32.775Z,222.23
2018-12-19T02:47:00.235Z,228.77
2018-12-19T02:49:27.787Z,228.47
2018-12-19T02:51:55.332Z,229.93
2018-12-19T02:54:22.919Z,232.13
2018-12-19T02:56:50.387Z,232.23
2018-12-19T02:59:17.948Z,226.73
2018-12-19T03:01:45.491Z,221.47
2018-12-19T03:04:12.947Z,226.43
2018-12-19T03:06:40.411Z,225.30
2018-12-19T03:09:07.891Z,229.77
2018-12-19T03:11:35.336Z,227.87
2018-12-19T03:14:02.879Z,224.73
2018-12-19T03:16:30.646Z,224.53
2018-12-19T03:18:58.204Z,220.83
2018-12-19T03:21:25.719Z,220.03
2018-12-19T03:23:53.200Z,217.70
2018-12-19T03:26:20.655Z,218.73
2018-12-19T03:28:48.156Z,219.07
2018-12-19T03:31:15.748Z,212.17
2018-12-19T03:33:43.197Z,213.40
2018-12-19T03:36:10.726Z,209.50
2018-12-19T03:38:38.207Z,206.33
2018-12-19T03:41:05.766Z,204.57
2018-12-19T03:43:33.290Z,203.73
2018-12-19T03:46:00.743Z,208.90
2018-12-19T03:48:33.935Z,207.43
2018-12-19T03:51:01.492Z,199.97
2018-12-19T03:53:28.955Z,195.10
2018-12-19T03:55:56.439Z,192.77
2018-12-19T03:58:23.898Z,192.47
2018-12-19T04:00:51.428Z,192.03
2018-12-19T04:03:18.967Z,186.43
2018-12-19T04:05:46.415Z,184.10
2018-12-19T04:08:13.911Z,184.80
2018-12-19T04:10:41.377Z,178.80
2018-12-19T04:13:08.847Z,176.43
2018-12-19T04:15:36.399Z,173.80
2018-12-19T04:18:03.859Z,168.70
2018-12-19T04:20:31.405Z,166.80
2018-12-19T04:22:58.876Z,164.33
2018-12-19T04:25:26.362Z,163.67
2018-12-19T04:27:53.808Z,160.97
2018-12-19T04:30:21.261Z,161.70
2018-12-19T04:32:48.722Z,159.57
2018-12-19T04:35:16.216Z,156.13
2018-12-19T04:37:43.697Z,151.07
2018-12-19T04:40:11.164Z,151.93
2018-12-19T04:42:38.710Z,146.33
2018-12-19T04:45:06.281Z,145.47
2018-12-19T04:47:33.859Z,143.80
2018-12-19T04:50:01.339Z,144.03
2018-12-19T04:52:28.891Z,144.23
2018-12-19T04:54:56.375Z,142.00
2018-12-19T04:57:23.842Z,140.80
2018-12-19T04:59:51.292Z,137.27
2018-12-19T05:02:18.811Z,135.40
2018-12-19T05:04:46.361Z,131.37
2018-12-19T05:07:13.880Z,131.37
2018-12-19T05:09:41.367Z,132.63
2018-12-19T05:12:08.831Z,127.27
2018-12-19T05:14:36.710Z,125.60
2018-12-19T05:17:04.264Z,125.40
2018-12-19T05:19:31.807Z,121.57
2018-12-19T05:21:59.294Z,119.63
2018-12-19T05:24:26.762Z,117.30
2018-12-19T05:26:54.337Z,115.93
2018-12-19T05:29:21.800Z,117.00
2018-12-19T05:31:49.330Z,116.07
2018-12-19T05:34:16.847Z,112.53
2018-12-19T05:36:44.313Z,108.30
2018-12-19T05:39:11.785Z,107.47
2018-12-19T05:41:39.367Z,107.80
2018-12-19T05:44:06.891Z,104.80
2018-12-19T05:46:34.474Z,104.10
2018-12-19T05:49:02.035Z,99.73
2018-12-19T05:51:29.483Z,99.47
2018-12-19T05:53:56.935Z,97.60
2018-12-19T05:56:24.395Z,98.03
2018-12-19T05:58:51.858Z,95.33
2018-12-19T06:01:19.332Z,95.33
2018-12-19T06:03:46.826Z,91.47
2018-12-19T06:06:14.314Z,88.80
2018-12-19T06:08:41.899Z,88.57
2018-12-19T06:11:09.450Z,86.10
2018-12-19T06:13:37.006Z,83.43
2018-12-19T06:16:04.572Z,83.47
2018-12-19T06:18:32.117Z,82.80
2018-12-19T06:20:59.578Z,81.23
2018-12-19T06:23:27.023Z,79.30
2018-12-19T06:25:54.509Z,79.27
2018-12-19T06:28:23.186Z,77.40
2018-12-19T06:30:50.791Z,75.23
2018-12-19T06:33:18.304Z,73.40
2018-12-19T06:35:45.771Z,72.30
2018-12-19T06:38:13.215Z,70.87
2018-12-19T06:40:40.740Z,70.20
2018-12-19T06:43:08.193Z,68.53
2018-12-19T06:45:35.658Z,67.23
2018-12-19T06:48:03.145Z,66.20
2018-12-19T06:50:30.702Z,65.40
2018-12-19T06:52:58.165Z,62.93
2018-12-19T06:55:25.626Z,62.63
2018-12-19T06:57:53.067Z,61.10
2018-12-19T07:00:20.554Z,60.70
2018-12-19T07:02:48.057Z,59.60
2018-12-19T07:05:15.541Z,58.40
2018-12-19T07:07:43.041Z,56.97
2018-12-19T07:10:10.486Z,55.20
2018-12-19T07:12:38.038Z,56.43
2018-12-19T07:15:05.804Z,54.50
2018-12-19T07:17:33.262Z,53.40
2018-12-19T07:20:00.838Z,53.17
2018-12-19T07:22:28.356Z,51.77
2018-12-19T07:24:55.803Z,50.60
2018-12-19T07:27:23.302Z,49.40
2018-12-19T07:29:50.836Z,48.20
2018-12-19T07:32:18.359Z,48.20
2018-12-19T07:34:45.878Z,47.50
2018-12-19T07:37:13.347Z,48.10
2018-12-19T07:39:40.899Z,46.03
2018-12-19T07:42:08.347Z,44.20
2018-12-19T07:44:35.794Z,42.60
2018-12-19T07:47:03.259Z,43.43
2018-12-19T07:49:30.809Z,41.53
2018-12-19T07:51:58.359Z,40.17
2018-12-19T07:54:25.835Z,40.33
2018-12-19T07:56:53.370Z,38.53
2018-12-19T07:59:20.842Z,38.17
2018-12-19T08:01:48.347Z,37.70
2018-12-19T08:04:16.207Z,36.90
2018-12-19T08:06:43.663Z,35.80
2018-12-19T08:09:11.201Z,35.67
2018-12-19T08:11:38.714Z,35.10
2018-12-19T08:14:06.201Z,33.47
2018-12-19T08:16:33.751Z,34.07
2018-12-19T08:19:01.204Z,32.47
2018-12-19T08:21:28.670Z,31.57
2018-12-19T08:23:56.230Z,30.90
2018-12-19T08:26:23.721Z,30.43
2018-12-19T08:28:51.529Z,29.77
2018-12-19T08:31:19.324Z,30.53
2018-12-19T08:33:46.891Z,28.93
2018-12-19T08:36:14.319Z,28.07
2018-12-19T08:38:41.805Z,27.03
2018-12-19T08:41:09.366Z,26.27
2018-12-19T08:43:36.964Z,26.73
2018-12-19T08:46:04.446Z,26.03
2018-12-19T08:48:31.928Z,24.73
2018-12-19T08:50:59.478Z,24.70
2018-12-19T08:53:26.921Z,23.80
2018-12-19T08:55:54.422Z,23.87
2018-12-19T08:58:21.983Z,23.23
2018-12-19T09:00:51.360Z,23.13
2018-12-19T09:03:18.828Z,22.30
2018-12-19T09:05:46.387Z,22.30
2018-12-19T09:08:13.834Z,21.47
2018-12-19T09:10:41.283Z,21.30
2018-12-19T09:13:08.726Z,21.70
2018-12-19T09:15:41.928Z,20.37
2018-12-19T09:18:09.409Z,19.20
2018-12-19T09:20:37.375Z,20.23
2018-12-19T09:23:04.839Z,19.73
2018-12-19T09:25:32.486Z,19.63
2018-12-19T09:28:00.741Z,17.87
2018-12-19T09:30:28.231Z,18.33
2018-12-19T09:32:55.675Z,18.17
2018-12-19T09:35:23.283Z,17.20
2018-12-19T09:37:50.742Z,17.50
2018-12-19T09:40:18.235Z,16.90
2018-12-19T09:42:45.820Z,16.57
2018-12-19T09:45:13.274Z,15.93
2018-12-19T09:47:40.857Z,15.60
2018-12-19T09:50:08.290Z,14.93
2018-12-19T09:52:35.770Z,15.27
2018-12-19T09:55:03.242Z,14.60
2018-12-19T09:57:30.883Z,15.30
2018-12-19T09:59:58.366Z,13.87
2018-12-19T10:02:25.811Z,13.77
2018-12-19T10:04:53.355Z,13.37
2018-12-19T10:07:20.938Z,13.20
2018-12-19T10:09:48.443Z,12.87
2018-12-19T10:12:15.887Z,13.00
2018-12-19T10:14:43.447Z,12.07
2018-12-19T10:17:10.887Z,12.40
2018-12-19T10:19:38.391Z,11.33
2018-12-19T10:22:05.996Z,11.63
2018-12-19T10:24:39.093Z,11.10
2018-12-19T10:27:06.609Z,11.13
2018-12-19T10:29:34.167Z,10.90
2018-12-19T10:32:01.627Z,10.67
2018-12-19T10:34:29.075Z,10.70
2018-12-19T10:36:58.459Z,10.50
2018-12-19T10:39:26.007Z,9.80
2018-12-19T10:41:53.472Z,9.70
2018-12-19T10:44:21.113Z,9.80
2018-12-19T10:46:48.559Z,9.67
2018-12-19T10:49:16.076Z,9.43
2018-12-19T10:51:43.527Z,9.30
2018-12-19T10:54:10.990Z,9.27
2018-12-19T10:56:38.439Z,8.53
2018-12-19T10:59:05.891Z,8.37
2018-12-19T11:01:33.364Z,20.20
2018-12-19T11:04:00.995Z,28.43
2018-12-19T11:06:28.436Z,29.67
2018-12-19T11:08:55.905Z,38.07
2018-12-19T11:11:23.396Z,14.00
2018-12-19T11:13:50.858Z,16.57
2018-12-19T11:16:18.316Z,17.80
2018-12-19T11:18:45.779Z,17.53
2018-12-19T11:21:13.258Z,15.87
2018-12-19T11:23:40.787Z,15.40
2018-12-19T11:26:08.243Z,14.17
2018-12-19T11:28:35.699Z,12.00
2018-12-19T11:31:03.150Z,13.13
2018-12-19T11:33:30.613Z,29.83
2018-12-19T11:35:58.059Z,32.13
2018-12-19T11:38:25.506Z,18.30
2018-12-19T11:40:52.984Z,16.73
2018-12-19T11:43:20.427Z,13.17
2018-12-19T11:45:47.910Z,17.83
2018-12-19T11:48:15.387Z,13.37
2018-12-19T11:50:42.923Z,19.13
2018-12-19T11:53:10.367Z,16.93
2018-12-19T11:55:37.849Z,11.97
2018-12-19T11:58:05.298Z,11.40
2018-12-19T12:00:32.744Z,10.10
2018-12-19T12:03:00.213Z,11.33
2018-12-19T12:05:27.650Z,12.20
2018-12-19T12:07:55.098Z,11.00
2018-12-19T12:10:22.576Z,18.87
2018-12-19T12:12:50.015Z,14.70
2018-12-19T12:15:17.483Z,17.93
2018-12-19T12:17:44.967Z,13.10
2018-12-19T12:20:12.509Z,12.30
2018-12-19T12:22:41.191Z,10.53
2018-12-19T12:25:08.789Z,10.13
2018-12-19T12:27:36.314Z,11.60
2018-12-19T12:30:05.258Z,8.37
2018-12-19T12:32:32.739Z,11.27
2018-12-19T12:35:00.196Z,14.60
2018-12-19T12:37:27.679Z,8.13
2018-12-19T12:39:55.268Z,9.60
2018-12-19T12:42:22.803Z,9.63
2018-12-19T12:44:50.358Z,8.30
2018-12-19T12:47:17.819Z,7.80
2018-12-19T12:49:45.277Z,12.43
2018-12-19T12:52:12.712Z,8.43
2018-12-19T12:54:40.296Z,13.17
2018-12-19T12:57:07.854Z,11.90
2018-12-19T12:59:35.423Z,9.20
2018-12-19T13:02:02.874Z,8.63
2018-12-19T13:04:30.332Z,11.97
2018-12-19T13:06:57.864Z,8.70
2018-12-19T13:09:25.377Z,10.50
2018-12-19T13:11:58.648Z,16.87
2018-12-19T13:14:22.316Z,13.47
2018-12-19T13:16:49.790Z,15.77
2018-12-19T13:19:17.343Z,13.53
2018-12-19T13:21:44.872Z,11.90
2018-12-19T13:24:12.335Z,19.10
2018-12-19T13:26:39.810Z,20.80
2018-12-19T13:29:07.372Z,15.60
2018-12-19T13:31:34.815Z,16.20
2018-12-19T13:34:02.379Z,17.10
2018-12-19T13:36:29.847Z,22.27
2018-12-19T13:38:57.397Z,22.57
2018-12-19T13:41:24.851Z,18.87
2018-12-19T13:43:52.331Z,11.70
2018-12-19T13:46:19.771Z,15.93
2018-12-19T13:48:47.212Z,12.53
2018-12-19T13:51:14.659Z,11.77
2018-12-19T13:53:42.167Z,24.23
2018-12-19T13:56:09.619Z,17.53
2018-12-19T13:58:37.783Z,14.80
2018-12-19T14:01:05.238Z,14.83
2018-12-19T14:03:32.703Z,29.17
2018-12-19T14:06:00.132Z,10.20
2018-12-19T14:08:27.607Z,13.97
2018-12-19T14:10:55.151Z,22.90
2018-12-19T14:13:22.610Z,25.67
2018-12-19T14:15:50.067Z,15.97
2018-12-19T14:18:17.640Z,18.90
2018-12-19T14:20:45.082Z,26.60
2018-12-19T14:23:12.602Z,37.93
2018-12-19T14:25:40.060Z,22.73
2018-12-19T14:28:07.604Z,39.90
2018-12-19T14:30:35.094Z,32.63
2018-12-19T14:33:02.566Z,32.40
2018-12-19T14:35:30.016Z,34.53
2018-12-19T14:37:57.472Z,32.00
2018-12-19T14:40:24.932Z,38.73
2018-12-19T14:42:52.407Z,36.63
2018-12-19T14:45:20.063Z,41.63
2018-12-19T14:47:47.514Z,35.60
2018-12-19T14:50:14.962Z,39.57
2018-12-19T14:52:42.415Z,42.87
2018-12-19T14:55:09.918Z,31.33
2018-12-19T14:57:37.471Z,38.07
2018-12-19T15:00:08.242Z,25.33
2018-12-19T15:02:35.689Z,26.67
2018-12-19T15:05:04.543Z,31.80
2018-12-19T15:07:32.405Z,22.13
2018-12-19T15:09:59.847Z,23.33
2018-12-19T15:12:27.331Z,33.43
2018-12-19T15:14:54.879Z,27.53
2018-12-19T15:17:22.421Z,46.20
2018-12-19T15:19:50.022Z,30.53
2018-12-19T15:22:17.579Z,36.47
2018-12-19T15:24:45.052Z,37.47
2018-12-19T15:27:12.686Z,36.90
2018-12-19T15:29:40.132Z,29.70
2018-12-19T15:32:07.699Z,41.20
2018-12-19T15:34:35.163Z,32.70
2018-12-19T15:37:02.623Z,36.13
2018-12-19T15:39:30.183Z,39.23
2018-12-19T15:41:57.626Z,42.30
2018-12-19T15:44:25.111Z,36.47
2018-12-19T15:46:52.622Z,47.13
2018-12-19T15:49:20.117Z,44.40
2018-12-19T15:51:47.583Z,43.40
2018-12-19T15:54:15.015Z,44.03
2018-12-19T15:56:42.476Z,49.07
2018-12-19T15:59:09.919Z,40.63
2018-12-19T16:01:37.408Z,40.97
2018-12-19T16:04:04.951Z,45.63
2018-12-19T16:06:32.415Z,46.10
2018-12-19T16:08:59.856Z,39.73
2018-12-19T16:11:27.378Z,40.27
2018-12-19T16:13:54.831Z,46.60
2018-12-19T16:16:22.359Z,48.00
2018-12-19T16:18:49.812Z,50.27
2018-12-19T16:21:17.360Z,51.90
2018-12-19T16:23:44.896Z,52.27
2018-12-19T16:26:12.375Z,49.37
2018-12-19T16:28:39.835Z,48.83
2018-12-19T16:31:07.290Z,57.37
2018-12-19T16:33:34.879Z,42.73
2018-12-19T16:36:02.472Z,46.57
2018-12-19T16:38:29.903Z,48.53
2018-12-19T16:40:57.355Z,36.27
2018-12-19T16:43:24.895Z,47.20
2018-12-19T16:45:52.443Z,38.93
2018-12-19T16:48:19.894Z,38.13
2018-12-19T16:50:47.343Z,40.43
2018-12-19T16:53:14.811Z,42.33
2018-12-19T16:55:42.270Z,39.77
2018-12-19T16:58:09.731Z,37.00
2018-12-19T17:00:37.172Z,48.53
2018-12-19T17:03:04.651Z,34.63
2018-12-19T17:05:32.104Z,39.30
2018-12-19T17:07:59.563Z,51.13
2018-12-19T17:10:27.007Z,39.27
2018-12-19T17:12:54.479Z,43.67
2018-12-19T17:15:21.939Z,36.70
2018-12-19T17:17:49.599Z,46.73
2018-12-19T17:20:17.048Z,50.53
2018-12-19T17:22:44.495Z,48.33
2018-12-19T17:25:11.952Z,41.47
2018-12-19T17:27:39.427Z,44.10
2018-12-19T17:30:06.891Z,42.23
2018-12-19T17:32:34.447Z,43.17
2018-12-19T17:35:01.916Z,46.77
2018-12-19T17:37:29.476Z,45.20
2018-12-19T17:39:57.030Z,46.73
2018-12-19T17:42:24.588Z,39.83
2018-12-19T17:44:52.144Z,50.70
2018-12-19T17:47:19.588Z,42.73
2018-12-19T17:49:47.058Z,50.07
2018-12-19T17:52:14.501Z,48.93
2018-12-19T17:54:41.945Z,42.80
2018-12-19T17:57:09.447Z,36.47
2018-12-19T17:59:36.986Z,47.37
2018-12-19T18:02:04.519Z,49.70
2018-12-19T18:04:31.954Z,47.10
2018-12-19T18:06:59.483Z,47.93
2018-12-19T18:09:26.931Z,48.27
2018-12-19T18:11:54.392Z,49.67
2018-12-19T18:14:21.933Z,42.27
2018-12-19T18:16:49.494Z,61.30
2018-12-19T18:19:23.188Z,45.77
2018-12-19T18:21:46.423Z,162.13
2018-12-19T18:24:13.862Z,83.07
2018-12-19T18:26:41.327Z,46.57
2018-12-19T18:29:08.843Z,53.47
2018-12-19T18:31:36.297Z,59.80
2018-12-19T18:34:03.869Z,50.00
2018-12-19T18:36:31.338Z,197.13
2018-12-19T18:38:58.805Z,40.07
2018-12-19T18:41:26.349Z,51.87
2018-12-19T18:43:53.820Z,51.37
2018-12-19T18:46:21.275Z,59.83
2018-12-19T18:48:48.799Z,66.17
2018-12-19T18:51:16.244Z,52.07
2018-12-19T18:53:43.701Z,53.07
2018-12-19T18:56:11.163Z,48.90
2018-12-19T18:58:38.778Z,63.93
2018-12-19T19:01:06.319Z,67.50
2018-12-19T19:03:33.782Z,45.37
2018-12-19T19:06:01.371Z,50.93
2018-12-19T19:08:29.016Z,60.73
2018-12-19T19:10:56.529Z,43.23
2018-12-19T19:13:23.975Z,58.83
2018-12-19T19:15:51.443Z,124.43
2018-12-19T19:18:18.918Z,75.87
2018-12-19T19:20:46.463Z,100.90
2018-12-19T19:23:13.918Z,63.30
2018-12-19T19:25:41.379Z,62.80
2018-12-19T19:28:08.950Z,64.63
2018-12-19T19:30:36.728Z,77.13
2018-12-19T19:33:04.361Z,64.33
2018-12-19T19:35:31.821Z,54.37
2018-12-19T19:37:59.280Z,62.50
2018-12-19T19:40:26.743Z,149.17
2018-12-19T19:42:54.193Z,65.10
2018-12-19T19:45:21.767Z,76.77
2018-12-19T19:47:49.324Z,86.40
2018-12-19T19:50:16.860Z,93.03
2018-12-19T19:52:44.328Z,64.60
2018-12-19T19:55:11.790Z,62.77
2018-12-19T19:57:39.235Z,73.67
2018-12-19T20:00:08.423Z,93.33
2018-12-19T20:02:35.887Z,86.63
2018-12-19T20:05:03.577Z,143.10
2018-12-19T20:07:31.032Z,137.93
2018-12-19T20:09:58.588Z,94.47
2018-12-19T20:12:26.051Z,141.80
2018-12-19T20:14:54.625Z,151.27
2018-12-19T20:17:26.263Z,116.20
2018-12-19T20:19:53.763Z,129.87
2018-12-19T20:22:21.256Z,104.63
2018-12-19T20:24:48.704Z,105.60
2018-12-19T20:27:16.217Z,109.13
2018-12-19T20:29:43.671Z,99.33
2018-12-19T20:32:11.223Z,78.00
2018-12-19T20:34:38.675Z,81.57
2018-12-19T20:37:06.131Z,79.53
2018-12-19T20:39:33.604Z,87.17
2018-12-19T20:42:01.063Z,83.23
2018-12-19T20:44:28.630Z,75.53
2018-12-19T20:46:56.091Z,74.27
2018-12-19T20:49:23.627Z,74.10
2018-12-19T20:51:51.123Z,65.30
2018-12-19T20:54:18.642Z,67.07
2018-12-19T20:56:46.123Z,58.20
2018-12-19T20:59:13.684Z,62.03
2018-12-19T21:01:41.191Z,60.90
2018-12-19T21:04:08.655Z,55.13
2018-12-19T21:06:36.140Z,67.20
2018-12-19T21:09:06.101Z,53.63
2018-12-19T21:11:33.621Z,52.77
2018-12-19T21:14:01.171Z,55.03
2018-12-19T21:16:34.215Z,50.50
2018-12-19T21:19:01.743Z,48.40
2018-12-19T21:21:29.267Z,51.17
2018-12-19T21:23:56.748Z,41.23
2018-12-19T21:26:24.306Z,45.93
2018-12-19T21:28:51.891Z,44.13
2018-12-19T21:31:19.352Z,42.00
2018-12-19T21:33:46.812Z,42.83
2018-12-19T21:36:14.445Z,41.30
2018-12-19T21:38:41.956Z,40.83
2018-12-19T21:41:09.539Z,35.27
2018-12-19T21:43:37.013Z,34.73
2018-12-19T21:46:04.568Z,37.80
2018-12-19T21:48:32.032Z,34.73
2018-12-19T21:50:59.557Z,29.33
2018-12-19T21:53:27.268Z,38.87
2018-12-19T21:55:54.770Z,34.00
2018-12-19T21:58:22.394Z,31.10
2018-12-19T22:00:50.066Z,31.40
2018-12-19T22:03:17.610Z,29.90
2018-12-19T22:05:45.188Z,27.07
2018-12-19T22:08:12.690Z,32.13
2018-12-19T22:10:40.149Z,27.47
2018-12-19T22:13:07.788Z,28.30
2018-12-19T22:15:35.388Z,26.63
2018-12-19T22:18:08.559Z,27.80
2018-12-19T22:20:36.052Z,24.77
2018-12-19T22:23:03.572Z,25.93
2018-12-19T22:25:31.208Z,29.73
2018-12-19T22:27:58.710Z,22.30
2018-12-19T22:30:26.319Z,25.07
2018-12-19T22:32:53.826Z,24.30
2018-12-19T22:35:21.418Z,28.13
2018-12-19T22:37:48.958Z,25.07
2018-12-19T22:40:16.407Z,24.50
2018-12-19T22:42:43.932Z,25.03
2018-12-19T22:45:11.544Z,20.67
2018-12-19T22:47:39.098Z,20.67
2018-12-19T22:50:06.562Z,21.07
2018-12-19T22:52:34.107Z,21.40
2018-12-19T22:55:01.555Z,22.80
2018-12-19T22:57:29.109Z,24.30
2018-12-19T22:59:56.662Z,24.80
2018-12-19T23:02:30.209Z,18.57
2018-12-19T23:04:57.715Z,24.80
2018-12-19T23:07:25.222Z,19.60
2018-12-19T23:09:52.817Z,14.20
2018-12-19T23:12:20.365Z,20.70
2018-12-19T23:14:47.899Z,16.40
2018-12-19T23:17:20.990Z,17.87
2018-12-19T23:19:48.524Z,16.20
2018-12-19T23:22:16.048Z,19.43
2018-12-19T23:24:43.549Z,13.47
2018-12-19T23:27:10.998Z,17.13
2018-12-19T23:29:38.442Z,17.73
2018-12-19T23:32:06.201Z,20.90
2018-12-19T23:34:33.874Z,17.73
2018-12-19T23:37:01.409Z,14.87
2018-12-19T23:39:29.101Z,16.10
2018-12-19T23:41:56.666Z,15.80
2018-12-19T23:44:29.830Z,16.97
2018-12-19T23:46:57.983Z,16.17
2018-12-19T23:49:25.724Z,11.60
2018-12-19T23:51:53.456Z,16.93
2018-12-19T23:54:20.939Z,12.07
2018-12-19T23:56:48.447Z,15.97
2018-12-19T23:59:15.949Z,16.57
